Time;durP1;ratioP1;P1;durP2;ratioP2;P2;SDS_P1;SDS_P2;PMS_P1;PMS_P2;Temp;Humidity;BMP_temperature;BMP_pressure;BME280_temperature;BME280_humidity;BME280_pressure;Samples;Min_cycle;Max_cycle;Signal;HPM_P1;HPM_P2
2021/03/24 00:01:54;;;;;;;9.83;6.95;;;;;;;2.85;75.76;100152.73;1709170;81;21626;-80
2021/03/24 00:04:22;;;;;;;8.73;6.45;;;;;;;2.88;75.79;100152.70;1720199;82;21589;-79
2021/03/24 00:06:49;;;;;;;11.53;7.25;;;;;;;2.88;75.74;100151.84;1710787;82;21149;-80
2021/03/24 00:09:19;;;;;;;10.38;6.92;;;;;;;2.86;75.81;100156.19;1709956;82;21213;-81
2021/03/24 00:11:46;;;;;;;8.20;6.80;;;;;;;2.89;75.84;100161.31;1703845;83;21677;-80
2021/03/24 00:14:13;;;;;;;9.68;7.03;;;;;;;2.91;75.91;100167.30;1725497;82;21227;-80
2021/03/24 00:16:40;;;;;;;;;;;;;;;2.95;75.95;100170.72;1720558;82;21155;-80
2021/03/24 00:19:08;;;;;;;8.75;7.53;;;;;;;2.97;75.93;100168.96;1722919;81;20619;-80
2021/03/24 00:21:34;;;;;;;9.28;7.72;;;;;;;2.98;75.95;100166.38;1719276;82;21949;-79
2021/03/24 00:24:02;;;;;;;7.60;6.65;;;;;;;3.00;75.93;100165.94;1724946;82;21164;-80
2021/03/24 00:26:29;;;;;;;10.18;7.33;;;;;;;3.02;75.97;100168.48;1700789;82;21056;-80
2021/03/24 00:28:55;;;;;;;9.48;7.37;;;;;;;3.02;75.95;100167.20;1713351;82;21239;-80
2021/03/24 00:31:23;;;;;;;8.00;6.95;;;;;;;3.01;75.97;100161.63;1708468;82;21907;-79
2021/03/24 00:33:51;;;;;;;9.15;6.72;;;;;;;3.04;76.01;100168.05;1709485;82;21258;-80
2021/03/24 00:36:18;;;;;;;8.93;7.87;;;;;;;3.02;76.01;100169.78;1712773;82;27216;-80
2021/03/24 00:38:46;;;;;;;10.00;7.45;;;;;;;3.02;76.04;100164.62;1707390;82;21175;-79
2021/03/24 00:41:13;;;;;;;8.80;7.22;;;;;;;3.02;76.06;100164.62;1716935;81;21595;-80
2021/03/24 00:43:40;;;;;;;9.93;7.45;;;;;;;3.01;76.08;100164.21;1698621;81;21248;-80
2021/03/24 00:46:07;;;;;;;9.18;7.35;;;;;;;3.01;76.06;100160.34;1700558;83;21311;-80
2021/03/24 00:48:35;;;;;;;9.53;7.92;;;;;;;2.99;76.13;100156.91;1700874;82;21226;-80
2021/03/24 00:51:05;;;;;;;10.32;7.95;;;;;;;3.00;76.16;100162.52;1700611;83;21164;-80
2021/03/24 00:53:33;;;;;;;10.13;7.65;;;;;;;3.00;76.16;100162.07;1703450;82;21599;-80
2021/03/24 00:56:00;;;;;;;12.07;8.55;;;;;;;3.01;76.19;100160.34;1704200;83;21155;-80
2021/03/24 00:58:27;;;;;;;11.25;7.55;;;;;;;3.04;76.20;100159.02;1722081;82;21445;-79
2021/03/24 01:00:54;;;;;;;8.80;7.53;;;;;;;3.04;76.19;100164.18;1698759;82;21300;-79
2021/03/24 01:03:21;;;;;;;8.25;7.00;;;;;;;3.00;76.19;100163.80;1716672;81;21185;-79
2021/03/24 01:05:50;;;;;;;13.48;7.55;;;;;;;2.97;76.29;100166.38;1724216;81;21156;-79
2021/03/24 01:08:24;;;;;;;12.40;8.10;;;;;;;2.95;76.37;100168.14;1701150;83;21167;-79
2021/03/24 01:10:53;;;;;;;10.00;6.25;;;;;;;2.95;76.39;100174.15;1722194;81;21248;-80
2021/03/24 01:13:22;;;;;;;12.07;8.18;;;;;;;2.99;76.64;100167.23;1694936;81;21294;-79
2021/03/24 01:15:49;;;;;;;10.10;8.45;;;;;;;2.97;76.42;100167.67;1717012;81;21201;-80
2021/03/24 01:18:18;;;;;;;8.00;7.20;;;;;;;2.98;76.46;100178.43;1699139;82;21220;-80
2021/03/24 01:20:45;;;;;;;9.95;7.40;;;;;;;3.00;76.49;100175.41;1703897;83;21211;-80
2021/03/24 01:23:13;;;;;;;10.95;8.05;;;;;;;3.00;76.43;100176.70;1701083;82;21288;-79
2021/03/24 01:25:40;;;;;;;9.35;7.17;;;;;;;2.97;76.45;100184.44;1707665;82;21194;-79
2021/03/24 01:28:18;;;;;;;9.38;7.62;;;;;;;2.97;76.56;100174.12;1705479;82;21190;-80
2021/03/24 01:30:45;;;;;;;10.55;8.00;;;;;;;2.99;76.51;100180.98;1713396;82;21212;-80
2021/03/24 01:33:13;;;;;;;9.58;7.80;;;;;;;2.99;76.52;100169.81;1723266;82;21176;-79
2021/03/24 01:35:40;;;;;;;12.30;8.28;;;;;;;3.02;76.58;100171.92;1722850;81;21218;-79
2021/03/24 01:38:08;;;;;;;10.98;7.75;;;;;;;3.05;76.63;100167.17;1718586;82;21178;-79
2021/03/24 01:40:41;;;;;;;;;;;;;;;3.10;76.62;100170.56;1718240;82;21750;-79
2021/03/24 01:43:25;;;;;;;10.20;7.60;;;;;;;3.11;76.59;100169.72;1719812;82;20309;-80
2021/03/24 01:46:37;;;;;;;10.82;8.48;;;;;;;3.11;76.55;100171.00;1721952;82;21159;-80
2021/03/24 01:49:13;;;;;;;12.50;9.03;;;;;;;3.11;76.63;100167.14;1645344;85;22661;-80
2021/03/24 01:51:53;;;;;;;11.25;7.72;;;;;;;3.14;76.61;100164.52;1645524;85;21233;-80
2021/03/24 01:54:25;;;;;;;11.05;8.68;;;;;;;3.15;76.64;100163.64;1644090;85;21194;-80
2021/03/24 01:57:04;;;;;;;11.78;8.85;;;;;;;3.16;76.68;100167.92;1646485;85;21231;-81
2021/03/24 01:59:31;;;;;;;14.73;8.70;;;;;;;3.19;76.69;100162.72;1640639;85;21237;-79
2021/03/24 02:01:58;;;;;;;10.13;8.88;;;;;;;3.20;76.67;100161.02;1643105;85;21227;-80
2021/03/24 02:04:25;;;;;;;10.23;8.38;;;;;;;3.20;76.69;100150.70;1649646;85;21300;-80
2021/03/24 02:07:10;;;;;;;9.85;7.65;;;;;;;3.20;76.66;100158.00;1645626;85;21211;-79
2021/03/24 02:09:51;;;;;;;9.60;7.28;;;;;;;3.19;76.64;100162.72;1643226;85;21540;-80
2021/03/24 02:12:33;;;;;;;10.55;7.62;;;;;;;3.18;76.64;100155.86;1632545;85;21669;-80
2021/03/24 02:15:11;;;;;;;11.48;7.80;;;;;;;3.20;76.74;100159.30;1640441;85;21486;-82
2021/03/24 02:17:43;;;;;;;10.43;6.70;;;;;;;3.22;76.71;100156.27;1640810;85;21194;-80
2021/03/24 02:20:15;;;;;;;9.90;7.97;;;;;;;3.18;76.64;100153.28;1649195;85;22680;-80
2021/03/24 02:22:46;;;;;;;11.18;8.83;;;;;;;3.15;76.68;100157.19;1648330;85;21239;-80
2021/03/24 02:25:40;;;;;;;9.95;7.30;;;;;;;3.16;76.75;100148.56;1645844;85;21235;-80
2021/03/24 02:28:11;;;;;;;11.68;8.33;;;;;;;3.17;76.73;100149.00;1646995;85;21236;-80
2021/03/24 02:30:42;;;;;;;10.10;7.85;;;;;;;3.18;76.79;100150.70;1644525;85;21246;-81
2021/03/24 02:33:20;;;;;;;13.75;8.03;;;;;;;3.19;76.77;100152.41;1642195;85;21202;-80
2021/03/24 02:35:51;;;;;;;10.80;8.15;;;;;;;3.19;76.77;100147.23;1639405;85;21298;-81
2021/03/24 02:38:21;;;;;;;8.53;7.37;;;;;;;3.21;76.82;100146.80;1640698;85;21206;-81
2021/03/24 02:40:51;;;;;;;11.35;7.65;;;;;;;3.22;76.81;100148.94;1644205;85;21182;-81
2021/03/24 02:43:19;;;;;;;13.20;7.83;;;;;;;3.23;76.78;100150.23;1646218;85;21197;-81
2021/03/24 02:45:48;;;;;;;10.20;7.53;;;;;;;3.22;76.76;100147.65;1624005;85;21182;-81
2021/03/24 02:48:20;;;;;;;11.25;7.83;;;;;;;3.22;76.85;100148.53;1639661;85;21218;-81
2021/03/24 02:50:47;;;;;;;9.55;7.85;;;;;;;3.24;76.84;100145.47;1637956;85;21637;-80
2021/03/24 02:53:15;;;;;;;9.93;7.95;;;;;;;3.24;76.78;100137.73;1634378;85;22204;-80
2021/03/24 02:55:43;;;;;;;;;;;;;;;3.23;76.79;100145.06;1641103;85;21625;-80
2021/03/24 02:58:11;;;;;;;9.80;7.45;;;;;;;3.22;76.85;100142.08;1639732;85;20339;-80
2021/03/24 03:00:39;;;;;;;11.35;8.70;;;;;;;3.23;76.86;100145.06;1639860;85;21246;-81
2021/03/24 03:03:14;;;;;;;13.28;7.80;;;;;;;3.24;76.86;100142.89;1639709;85;22416;-80
2021/03/24 03:05:43;;;;;;;12.73;8.00;;;;;;;3.24;76.83;100135.15;1633735;85;21228;-80
2021/03/24 03:08:21;;;;;;;10.80;8.33;;;;;;;3.24;76.86;100144.19;1635869;85;21694;-80
2021/03/24 03:11:05;;;;;;;10.50;7.70;;;;;;;3.25;76.85;100139.46;1635926;85;21214;-81
2021/03/24 03:13:47;;;;;;;11.80;7.47;;;;;;;3.26;76.90;100136.00;1634398;85;21824;-81
2021/03/24 03:16:28;;;;;;;10.28;7.97;;;;;;;3.28;76.89;100142.01;1632285;85;21341;-80
2021/03/24 03:19:15;;;;;;;11.70;8.35;;;;;;;3.28;76.84;100136.84;1643013;85;21234;-80
2021/03/24 03:21:49;;;;;;;11.28;8.30;;;;;;;3.26;76.89;100136.00;1636652;85;24559;-80
2021/03/24 03:24:19;;;;;;;12.70;8.58;;;;;;;3.27;76.92;100132.53;1633929;85;21294;-79
2021/03/24 03:26:48;;;;;;;10.63;7.67;;;;;;;3.29;76.91;100139.83;1631852;85;21214;-80
2021/03/24 03:29:18;;;;;;;9.10;7.50;;;;;;;3.27;76.83;100137.69;1638023;85;21242;-81
2021/03/24 03:31:50;;;;;;;9.43;8.03;;;;;;;3.26;76.91;100141.16;1631408;85;22300;-80
2021/03/24 03:34:22;;;;;;;10.23;8.03;;;;;;;3.27;76.91;100131.24;1636906;85;21223;-81
2021/03/24 03:36:53;;;;;;;9.18;7.75;;;;;;;3.29;76.95;100135.96;1618601;85;21438;-81
2021/03/24 03:39:24;;;;;;;10.55;7.35;;;;;;;3.30;76.94;100137.66;1635073;85;22613;-81
2021/03/24 03:41:53;;;;;;;11.65;8.13;;;;;;;3.32;76.92;100135.08;1637248;85;21188;-81
2021/03/24 03:44:21;;;;;;;11.05;7.47;;;;;;;3.32;76.91;100134.63;1617736;86;22237;-81
2021/03/24 03:46:55;;;;;;;11.00;7.87;;;;;;;3.31;76.90;100129.06;1635743;85;21379;-81
2021/03/24 03:49:23;;;;;;;10.70;8.85;;;;;;;3.32;76.93;100126.89;1646322;85;21618;-81
2021/03/24 03:52:12;;;;;;;11.48;8.80;;;;;;;3.31;76.95;100136.80;1628697;86;21581;-81
2021/03/24 03:54:47;;;;;;;11.15;8.75;;;;;;;3.30;76.91;100129.91;1625609;86;21673;-81
2021/03/24 03:57:25;;;;;;;11.63;8.80;;;;;;;3.29;76.93;100135.96;1620029;86;21283;-79
2021/03/24 04:00:09;;;;;;;11.15;8.35;;;;;;;3.30;77.00;100139.39;1621486;86;21311;-80
2021/03/24 04:05:17;;;;;;;10.88;8.43;;;;;;;3.35;76.98;100132.02;1794831;78;22852;-79
2021/03/24 04:07:50;;;;;;;10.70;8.73;;;;;;;3.30;76.93;100130.36;1771638;80;21088;-79
2021/03/24 04:10:17;;;;;;;17.12;8.53;;;;;;;3.28;76.97;100131.69;1767613;80;21985;-80
2021/03/24 04:12:45;;;;;;;13.22;8.13;;;;;;;3.28;77.03;100126.52;1768384;80;21611;-80
2021/03/24 04:15:17;;;;;;;10.45;8.20;;;;;;;3.29;77.03;100126.93;1767819;80;21068;-80
2021/03/24 04:17:51;;;;;;;14.53;8.95;;;;;;;3.31;77.03;100131.64;1771300;80;21067;-80
2021/03/24 04:20:22;;;;;;;11.15;8.75;;;;;;;3.33;77.05;100132.49;1766647;80;21063;-81
2021/03/24 04:22:53;;;;;;;10.98;8.75;;;;;;;3.29;76.92;100125.64;1739866;80;21416;-81
2021/03/24 04:25:29;;;;;;;10.88;8.23;;;;;;;3.30;77.00;100131.65;1765847;80;21134;-81
2021/03/24 04:27:58;;;;;;;11.20;8.45;;;;;;;3.31;77.02;100134.23;1769015;80;21098;-81
2021/03/24 04:30:36;;;;;;;12.20;8.75;;;;;;;3.32;77.05;100133.34;1765360;80;21190;-83
2021/03/24 04:33:03;;;;;;;11.00;8.03;;;;;;;3.32;76.98;100127.33;1769914;79;21591;-81
2021/03/24 04:35:31;;;;;;;15.83;8.85;;;;;;;3.31;76.98;100134.23;1769431;80;21405;-79
2021/03/24 04:38:02;;;;;;;11.45;7.55;;;;;;;3.30;77.05;100128.63;1764108;79;22523;-79
2021/03/24 04:40:49;;;;;;;8.15;7.25;;;;;;;3.33;77.04;100132.49;1768474;80;21215;-78
2021/03/24 04:43:22;;;;;;;13.60;7.53;;;;;;;3.34;77.08;100134.19;1765294;80;21231;-79
2021/03/24 04:46:00;;;;;;;13.65;8.55;;;;;;;3.34;77.09;100127.73;1768764;80;21227;-79
2021/03/24 04:48:37;;;;;;;14.73;8.00;;;;;;;3.38;77.11;100134.16;1767660;80;22353;-79
2021/03/24 04:51:16;;;;;;;12.93;8.33;;;;;;;3.35;77.08;100128.14;1770380;80;21048;-78
2021/03/24 04:53:48;;;;;;;13.00;9.18;;;;;;;3.34;77.11;100134.19;1767255;80;21172;-78
2021/03/24 04:56:18;;;;;;;11.45;7.90;;;;;;;3.33;77.13;100129.91;1765407;80;21179;-79
2021/03/24 04:58:53;;;;;;;12.78;8.65;;;;;;;3.32;77.07;100128.18;1765719;80;21128;-79
2021/03/24 05:01:34;;;;;;;11.12;9.05;;;;;;;3.33;77.11;100122.17;1769540;80;22106;-79
2021/03/24 05:04:22;;;;;;;12.00;7.87;;;;;;;3.34;77.08;100132.05;1767079;80;21216;-78
2021/03/24 05:07:06;;;;;;;9.23;8.00;;;;;;;3.35;77.16;100129.88;1763824;80;21618;-78
2021/03/24 05:09:34;;;;;;;18.12;8.15;;;;;;;3.36;77.12;100134.16;1686241;84;21632;-79
2021/03/24 05:12:13;;;;;;;;;;;;;;;3.39;77.13;100133.27;1684032;82;21486;-79
2021/03/24 05:14:54;;;;;;;17.37;7.47;;;;;;;3.43;77.21;100129.80;1687145;83;21426;-78
2021/03/24 05:17:26;;;;;;;13.43;8.45;;;;;;;3.43;77.10;100134.52;1684005;83;21205;-78
2021/03/24 05:20:07;;;;;;;14.30;9.73;;;;;;;3.51;77.24;100125.41;1769095;79;22388;-77
2021/03/24 05:22:44;;;;;;;10.95;8.40;;;;;;;3.52;77.24;100127.09;1722319;80;21292;-79
2021/03/24 05:25:37;;;;;;;10.05;8.43;;;;;;;3.54;77.12;100130.52;1750741;80;21231;-78
2021/03/24 05:28:24;;;;;;;16.90;8.05;;;;;;;3.55;77.15;100127.06;1749466;80;21313;-77
2021/03/24 05:31:08;;;;;;;10.30;7.72;;;;;;;3.55;77.10;100129.64;1744499;80;21207;-78
2021/03/24 05:33:42;;;;;;;23.00;14.20;;;;;;;3.56;77.12;100131.37;1742183;80;21278;-77
2021/03/24 05:36:22;;;;;;;21.00;14.70;;;;;;;3.54;77.04;100134.39;1709040;81;21677;-78
2021/03/24 05:38:52;;;;;;;21.82;12.63;;;;;;;3.56;77.17;100132.66;1751505;80;21512;-78
2021/03/24 05:41:34;;;;;;;17.73;10.63;;;;;;;3.58;77.09;100129.59;1754477;80;21104;-78
2021/03/24 05:45:49;;;;;;;15.25;10.68;;;;;;;3.67;77.13;100138.95;1770688;79;23442;-78
2021/03/24 05:48:39;;;;;;;17.12;9.90;;;;;;;3.64;77.13;100134.72;1752497;80;21044;-80
2021/03/24 05:51:26;;;;;;;12.80;8.43;;;;;;;3.70;77.14;100137.22;1746492;80;21265;-79
2021/03/24 05:54:04;;;;;;;11.57;8.78;;;;;;;3.75;77.21;100143.18;1743500;80;21169;-78
2021/03/24 05:57:07;;;;;;;11.15;8.45;;;;;;;3.80;77.19;100141.37;1737975;80;21167;-78
2021/03/24 06:00:02;;;;;;;10.95;8.75;;;;;;;3.80;77.07;100141.37;1751135;80;21207;-79
2021/03/24 06:03:10;;;;;;;12.30;9.23;;;;;;;3.79;77.07;100142.25;1744821;80;21072;-78
2021/03/24 06:06:13;;;;;;;12.43;8.13;;;;;;;3.84;77.10;100145.20;1736974;81;22266;-79
2021/03/24 06:09:09;;;;;;;11.28;8.48;;;;;;;3.84;76.97;100149.08;1674381;84;21052;-79
2021/03/24 06:12:16;;;;;;;14.70;10.28;;;;;;;3.90;77.06;100145.15;1824776;76;22986;-84
2021/03/24 06:15:09;;;;;;;11.63;10.05;;;;;;;3.93;77.18;100150.27;1798252;78;21012;-81
2021/03/24 06:18:10;;;;;;;13.43;10.38;;;;;;;4.02;77.10;100146.26;1775030;78;21194;-79
2021/03/24 06:21:02;;;;;;;16.30;11.05;;;;;;;4.07;77.09;100152.23;1795564;78;21064;-79
2021/03/24 06:23:49;;;;;;;14.85;11.78;;;;;;;4.10;77.02;100151.33;1798829;77;21644;-88
2021/03/24 06:26:27;;;;;;;17.37;10.00;;;;;;;4.13;77.05;100154.72;1798437;77;21634;-87
2021/03/24 06:29:40;;;;;;;18.40;11.50;;;;;;;4.13;76.91;100153.42;1797610;78;21640;-85
2021/03/24 06:32:38;;;;;;;17.92;11.48;;;;;;;4.17;76.99;100158.11;1793355;78;21290;-78
2021/03/24 06:36:00;;;;;;;20.80;12.65;;;;;;;4.24;77.03;100147.66;1702819;82;21283;-88
2021/03/24 06:39:11;;;;;;;16.87;12.03;;;;;;;4.34;77.04;100155.27;1708044;81;21565;-84
2021/03/24 06:42:32;;;;;;;16.40;10.95;;;;;;;4.43;77.03;100146.11;1705485;82;21232;-88
2021/03/24 06:45:18;;;;;;;15.85;12.18;;;;;;;4.31;76.75;100119.13;1702336;82;21316;-89
2021/03/24 06:47:52;;;;;;;17.90;11.45;;;;;;;4.52;76.90;100156.75;1706828;82;21330;-90
2021/03/24 06:51:03;;;;;;;15.63;11.48;;;;;;;4.56;76.84;100159.23;1708073;82;21263;-85
2021/03/24 06:56:29;;;;;;;20.23;12.90;;;;;;;4.71;76.83;100155.58;1798565;78;22031;-89
2021/03/24 06:59:40;;;;;;;15.23;11.35;;;;;;;4.74;76.84;100154.67;1709815;81;21021;-81
2021/03/24 07:02:45;;;;;;;17.77;11.88;;;;;;;4.84;76.85;100161.38;1695178;81;21226;-87
2021/03/24 07:05:37;;;;;;;18.67;12.78;;;;;;;4.87;76.67;100163.91;1703264;81;21237;-88
2021/03/24 07:08:50;;;;;;;18.62;12.98;;;;;;;4.93;76.70;100158.66;1828151;77;24061;-87
2021/03/24 07:12:08;;;;;;;20.45;12.28;;;;;;;4.94;76.63;100167.67;1800404;78;21052;-88
2021/03/24 07:14:50;;;;;;;15.60;11.60;;;;;;;4.98;76.55;100163.30;1802264;78;21593;-89
2021/03/24 07:17:48;;;;;;;14.68;11.30;;;;;;;5.02;76.47;100164.97;1794845;78;22117;-88
2021/03/24 07:20:59;;;;;;;16.37;11.57;;;;;;;5.08;76.50;100171.32;1800616;78;21060;-88
2021/03/24 07:24:08;;;;;;;15.63;10.85;;;;;;;5.09;76.34;100166.55;1800756;78;21660;-89
2021/03/24 07:27:22;;;;;;;18.62;11.28;;;;;;;5.14;76.35;100171.20;1795015;78;21199;-88
2021/03/24 07:30:35;;;;;;;16.65;11.08;;;;;;;5.23;76.52;100174.52;1798146;78;21187;-88
2021/03/24 07:33:31;;;;;;;14.58;10.50;;;;;;;5.33;76.44;100172.18;1795283;78;20989;-87
2021/03/24 07:36:27;;;;;;;14.98;11.53;;;;;;;5.42;76.18;100173.30;1799864;78;21020;-88
2021/03/24 07:39:08;;;;;;;22.10;11.75;;;;;;;5.47;76.29;100176.66;1803436;78;21210;-87
2021/03/24 07:42:14;;;;;;;15.80;11.93;;;;;;;5.56;76.17;100177.77;1799006;77;21669;-88
2021/03/24 07:45:25;;;;;;;21.03;14.57;;;;;;;5.59;75.93;100182.87;1796289;78;21204;-89
2021/03/24 07:48:29;;;;;;;23.00;16.27;;;;;;;5.60;75.99;100178.13;1678064;83;21270;-89
2021/03/24 07:51:28;;;;;;;24.25;16.35;;;;;;;5.73;75.89;100172.70;1828591;75;21926;-88
2021/03/24 07:54:16;;;;;;;23.98;16.02;;;;;;;5.74;76.00;100176.98;1804510;78;21250;-89
2021/03/24 07:56:54;;;;;;;22.98;15.48;;;;;;;5.81;75.92;100178.58;1782470;78;21284;-88
2021/03/24 07:59:45;;;;;;;17.82;13.25;;;;;;;5.86;75.87;100174.16;1808139;78;21069;-89
2021/03/24 08:02:31;;;;;;;21.55;14.10;;;;;;;5.94;75.87;100168.86;1806041;78;21160;-84
2021/03/24 08:05:24;;;;;;;18.17;13.48;;;;;;;6.03;75.89;100165.61;1802942;77;21127;-89
2021/03/24 08:08:35;;;;;;;24.55;14.07;;;;;;;6.14;75.70;100165.83;1809870;78;21186;-85
2021/03/24 08:11:33;;;;;;;31.25;14.38;;;;;;;6.22;75.79;100167.81;1803850;78;21250;-82
2021/03/24 08:14:08;;;;;;;17.67;13.58;;;;;;;6.33;75.69;100169.72;1777707;78;21578;-86
2021/03/24 08:16:49;;;;;;;20.10;13.18;;;;;;;6.42;75.68;100165.61;1746213;80;21072;-80
2021/03/24 08:19:24;;;;;;;21.82;13.88;;;;;;;6.42;75.44;100172.09;1740849;81;21216;-86
2021/03/24 08:22:18;;;;;;;23.22;13.83;;;;;;;6.36;75.27;100164.46;1764215;80;21221;-84
2021/03/24 08:25:20;;;;;;;18.55;12.88;;;;;;;6.32;75.33;100164.55;1744157;81;22300;-85
2021/03/24 08:28:02;;;;;;;23.80;14.65;;;;;;;6.36;75.42;100164.46;1745424;80;21118;-85
2021/03/24 08:30:58;;;;;;;25.27;14.28;;;;;;;6.47;75.53;100163.77;1771891;79;21433;-87
2021/03/24 08:33:58;;;;;;;30.05;12.98;;;;;;;6.58;75.47;100166.53;1750269;80;21191;-87
2021/03/24 08:36:51;;;;;;;20.50;13.10;;;;;;;6.64;75.27;100170.30;1742861;80;21215;-86
2021/03/24 08:39:36;;;;;;;25.12;14.38;;;;;;;6.66;75.29;100178.43;1739809;80;21244;-86
2021/03/24 08:42:24;;;;;;;18.30;12.85;;;;;;;6.72;75.07;100173.54;1719665;80;21208;-78
2021/03/24 08:44:59;;;;;;;16.85;13.10;;;;;;;6.72;74.94;100177.43;1747939;80;21650;-81
2021/03/24 08:47:33;;;;;;;19.37;13.60;;;;;;;6.74;74.99;100175.66;1739897;80;21164;-82
2021/03/24 08:50:02;;;;;;;22.85;14.55;;;;;;;6.76;74.82;100171.30;1732728;81;22055;-90
2021/03/24 08:52:44;;;;;;;19.75;13.85;;;;;;;6.82;74.89;100168.55;1727395;82;21214;-90
2021/03/24 08:55:35;;;;;;;21.55;14.03;;;;;;;6.85;74.83;100171.06;1751935;80;21869;-89
2021/03/24 08:58:24;;;;;;;18.07;13.43;;;;;;;6.79;74.33;100166.47;1741957;81;21848;-81
2021/03/24 09:01:28;;;;;;;16.65;13.48;;;;;;;6.75;74.73;100169.59;1743503;80;21209;-87
2021/03/24 09:04:40;;;;;;;57.23;16.77;;;;;;;6.81;74.72;100164.25;1690219;83;22815;-88
2021/03/24 09:07:47;;;;;;;44.40;15.50;;;;;;;6.86;74.46;100166.30;1795006;78;23358;-79
2021/03/24 09:10:50;;;;;;;140.28;21.50;;;;;;;6.88;74.69;100161.89;1761892;80;21689;-78
2021/03/24 09:13:23;;;;;;;55.65;16.82;;;;;;;6.98;74.46;100166.42;1763760;79;22241;-81
2021/03/24 09:15:55;;;;;;;38.85;18.67;;;;;;;7.03;74.33;100163.27;1769466;79;21653;-77
2021/03/24 09:18:28;;;;;;;22.77;14.65;;;;;;;7.11;74.35;100157.86;1768636;79;21194;-87
2021/03/24 09:21:22;;;;;;;22.98;14.10;;;;;;;7.15;74.17;100160.80;1767916;80;21117;-88
2021/03/24 09:24:20;;;;;;;22.95;13.58;;;;;;;7.18;74.08;100150.33;1768104;80;21811;-87
2021/03/24 09:27:35;;;;;;;36.25;18.60;;;;;;;7.22;74.11;100155.83;1764777;79;21962;-88
2021/03/24 09:30:31;;;;;;;34.90;17.90;;;;;;;7.32;74.10;100158.59;1761677;79;21137;-88
2021/03/24 09:33:40;;;;;;;40.00;19.17;;;;;;;7.44;74.05;100163.05;1771713;79;21060;-91
2021/03/24 09:36:52;;;;;;;31.00;17.23;;;;;;;7.53;73.76;100155.00;1772103;79;21218;-85
2021/03/24 09:39:43;;;;;;;25.48;17.15;;;;;;;7.61;73.80;100154.34;1707930;81;21213;-85
2021/03/24 09:42:41;;;;;;;30.45;17.15;;;;;;;7.79;73.77;100153.83;1703291;81;21418;-86
2021/03/24 09:45:22;;;;;;;29.55;15.90;;;;;;;7.85;73.39;100153.64;1675962;83;21241;-89
2021/03/24 09:48:00;;;;;;;27.85;16.75;;;;;;;7.80;73.28;100152.08;1651884;85;21259;-84
2021/03/24 09:51:08;;;;;;;25.60;15.32;;;;;;;7.76;73.24;100153.91;1671008;83;21247;-87
2021/03/24 09:53:41;;;;;;;29.10;17.62;;;;;;;7.75;73.27;100153.49;1650690;85;21269;-81
2021/03/24 09:56:22;;;;;;;26.93;15.72;;;;;;;7.73;73.22;100151.41;1673903;84;21206;-82
2021/03/24 09:59:07;;;;;;;21.95;15.68;;;;;;;7.70;73.16;100158.00;1674004;83;21370;-81
2021/03/24 10:02:01;;;;;;;22.65;16.57;;;;;;;7.71;73.17;100158.39;1684758;83;21305;-78
2021/03/24 10:05:03;;;;;;;27.40;16.70;;;;;;;7.69;72.98;100154.12;1654489;84;21253;-74
2021/03/24 10:07:37;;;;;;;27.30;18.05;;;;;;;7.65;73.04;100146.88;1676339;83;21215;-79
2021/03/24 10:10:24;;;;;;;25.50;17.07;;;;;;;7.68;72.98;100148.08;1676678;83;22212;-80
2021/03/24 10:13:25;;;;;;;25.20;18.05;;;;;;;7.67;72.82;100141.62;1665725;84;21349;-80
2021/03/24 10:15:59;;;;;;;23.22;16.82;;;;;;;7.65;72.94;100148.17;1714711;81;21191;-81
2021/03/24 10:18:47;;;;;;;25.00;18.73;;;;;;;7.70;72.92;100141.10;1703892;82;21381;-86
2021/03/24 10:21:22;;;;;;;49.83;20.23;;;;;;;7.64;72.19;100143.85;1696757;82;21246;-81
2021/03/24 10:23:57;;;;;;;31.45;18.95;;;;;;;7.48;72.19;100146.47;1704974;82;21240;-79
2021/03/24 10:26:49;;;;;;;26.82;20.20;;;;;;;7.32;71.85;100149.50;1705409;82;21285;-79
2021/03/24 10:29:21;;;;;;;26.48;18.00;;;;;;;7.17;72.25;100148.18;1727605;81;21220;-79
2021/03/24 10:31:56;;;;;;;27.37;18.75;;;;;;;7.11;72.15;100148.77;1728846;81;21585;-79
2021/03/24 10:34:44;;;;;;;29.70;20.12;;;;;;;7.09;72.17;100157.06;1727914;82;21206;-80
2021/03/24 10:37:50;;;;;;;45.25;20.10;;;;;;;7.08;72.24;100150.15;1703108;82;21247;-77
2021/03/24 10:40:22;;;;;;;34.77;20.10;;;;;;;7.06;72.02;100149.36;1726005;81;21230;-79
2021/03/24 10:42:55;;;;;;;26.45;19.30;;;;;;;6.99;71.95;100146.50;1726355;81;21215;-79
2021/03/24 10:45:30;;;;;;;30.02;20.27;;;;;;;6.98;71.89;100148.70;1726365;81;21244;-80
2021/03/24 10:48:05;;;;;;;31.05;19.90;;;;;;;6.95;71.94;100155.67;1725549;81;21803;-80
2021/03/24 10:51:14;;;;;;;37.58;20.97;;;;;;;6.99;72.00;100156.89;1724958;81;22982;-82
2021/03/24 10:53:41;;;;;;;31.35;21.37;;;;;;;6.99;71.71;100149.95;1726451;81;21180;-81
2021/03/24 10:56:34;;;;;;;29.55;19.42;;;;;;;6.99;71.81;100152.99;1723438;81;21072;-79
2021/03/24 10:59:28;;;;;;;35.90;20.45;;;;;;;6.95;71.44;100149.18;1723010;82;21262;-78
2021/03/24 11:02:28;;;;;;;37.15;21.97;;;;;;;6.87;71.39;100148.52;1711413;82;21195;-81
2021/03/24 11:05:08;;;;;;;32.58;19.32;;;;;;;6.88;71.57;100150.66;1727154;82;21414;-82
2021/03/24 11:07:55;;;;;;;34.70;22.20;;;;;;;6.86;71.22;100153.31;1696374;82;21238;-75
2021/03/24 11:10:31;;;;;;;;;;;;;;;6.89;71.47;100146.74;1698156;82;22230;-81
2021/03/24 11:13:06;;;;;;;38.10;21.60;;;;;;;6.84;70.90;100146.00;1701454;82;20236;-80
2021/03/24 11:15:45;;;;;;;37.03;23.42;;;;;;;6.83;71.26;100142.98;1704662;82;21271;-79
2021/03/24 11:18:15;;;;;;;32.33;21.17;;;;;;;6.86;71.10;100139.45;1725123;81;21207;-78
2021/03/24 11:20:56;;;;;;;28.30;20.72;;;;;;;6.86;71.12;100141.64;1698870;84;21183;-79
2021/03/24 11:23:49;;;;;;;33.05;22.00;;;;;;;6.85;70.93;100139.91;1697687;83;21139;-79
2021/03/24 11:26:46;;;;;;;36.17;22.70;;;;;;;6.77;70.80;100147.03;1697197;82;21283;-78
2021/03/24 11:29:18;;;;;;;32.20;21.48;;;;;;;6.75;70.92;100143.65;1731763;81;21182;-79
2021/03/24 11:32:22;;;;;;;33.02;22.52;;;;;;;6.80;70.81;100144.36;1728696;81;21228;-78
2021/03/24 11:35:12;;;;;;;30.35;21.70;;;;;;;6.78;70.84;100130.59;1688379;83;21262;-77
2021/03/24 11:37:54;;;;;;;34.90;22.77;;;;;;;6.76;70.46;100139.30;1719765;81;21649;-76
2021/03/24 11:40:39;;;;;;;32.80;24.15;;;;;;;6.75;70.79;100142.77;1718056;81;21214;-77
2021/03/24 11:43:10;;;;;;;31.82;22.77;;;;;;;6.75;70.86;100132.39;1702304;82;22324;-74
2021/03/24 11:45:37;;;;;;;38.28;23.73;;;;;;;6.76;70.75;100132.36;1679297;82;21379;-76
2021/03/24 11:48:31;;;;;;;36.08;23.10;;;;;;;6.77;70.87;100128.02;1711418;82;21649;-76
2021/03/24 11:51:34;;;;;;;36.75;22.70;;;;;;;6.83;70.62;100136.49;1774589;78;22795;-78
2021/03/24 11:54:35;;;;;;;30.72;23.10;;;;;;;6.74;70.64;100134.14;1743032;80;21663;-81
2021/03/24 11:57:40;;;;;;;36.28;23.90;;;;;;;6.72;70.64;100133.31;1747362;80;21210;-80
2021/03/24 12:00:16;;;;;;;27.55;21.12;;;;;;;6.66;70.53;100136.06;1745716;80;21084;-74
2021/03/24 12:03:39;;;;;;;29.55;21.15;;;;;;;6.65;70.59;100131.78;1747628;81;21159;-76
2021/03/24 12:06:20;;;;;;;32.60;21.55;;;;;;;6.63;70.43;100129.66;1742081;80;21209;-75
2021/03/24 12:09:11;;;;;;;34.05;22.93;;;;;;;6.63;70.34;100127.06;1747930;80;21597;-75
2021/03/24 12:11:40;;;;;;;38.35;24.57;;;;;;;6.66;70.69;100126.98;1742376;81;21294;-75
2021/03/24 12:14:16;;;;;;;35.55;24.70;;;;;;;6.70;70.68;100114.36;1743605;80;21685;-76
2021/03/24 12:16:57;;;;;;;35.75;21.75;;;;;;;6.75;70.55;100122.01;1744899;80;21060;-76
2021/03/24 12:19:42;;;;;;;35.23;23.10;;;;;;;6.77;70.56;100112.00;1747994;80;21225;-76
2021/03/24 12:22:28;;;;;;;32.23;22.95;;;;;;;6.80;70.54;100114.96;1750187;80;21764;-76
2021/03/24 12:25:15;;;;;;;31.68;21.55;;;;;;;6.79;70.30;100109.38;1741790;80;21226;-76
2021/03/24 12:27:47;;;;;;;32.70;23.15;;;;;;;6.65;69.81;100111.02;1742094;80;21175;-76
2021/03/24 12:33:16;;;;;;;43.13;25.75;;;;;;;6.41;70.36;100113.34;1772892;79;22934;-76
2021/03/24 12:35:45;;;;;;;75.00;26.48;;;;;;;6.33;70.32;100109.19;1740727;80;21013;-73
2021/03/24 12:38:16;;;;;;;102.55;30.12;;;;;;;6.35;70.45;100113.45;1745816;80;21155;-75
2021/03/24 12:40:53;;;;;;;116.62;30.92;;;;;;;6.36;70.41;100109.99;1744918;80;20987;-75
2021/03/24 12:43:34;;;;;;;65.15;27.58;;;;;;;6.42;70.62;100114.18;1744317;80;21018;-76